createdAt,value
2016-09-28T00:00:54.938Z,11.95
2016-09-28T00:01:54.956Z,11.85
2016-09-28T00:02:54.984Z,11.85
2016-09-28T00:03:55.007Z,11.8
2016-09-28T00:04:55.030Z,11.79
2016-09-28T00:05:55.050Z,11.78
2016-09-28T00:06:55.076Z,11.78
2016-09-28T00:07:55.096Z,11.61
2016-09-28T00:08:55.117Z,11.69
2016-09-28T00:09:55.140Z,11.6
2016-09-28T00:11:10.092Z,11.6
2016-09-28T00:11:55.189Z,11.6
2016-09-28T00:12:55.213Z,11.75
2016-09-28T00:14:10.162Z,11.62
2016-09-28T00:15:10.180Z,11.69
2016-09-28T00:16:10.199Z,11.57
2016-09-28T00:16:55.408Z,11.62
2016-09-28T00:17:55.325Z,11.7
2016-09-28T00:18:55.354Z,11.67
2016-09-28T00:19:55.368Z,11.67
2016-09-28T00:20:55.392Z,11.76
2016-09-28T00:21:55.421Z,11.73
2016-09-28T00:22:55.443Z,11.75
2016-09-28T00:23:55.462Z,11.76
2016-09-28T00:24:55.484Z,11.65
2016-09-28T00:25:55.515Z,11.61
2016-09-28T00:27:10.459Z,11.57
2016-09-28T00:27:55.567Z,11.57
2016-09-28T00:28:55.581Z,11.47
2016-09-28T00:29:55.602Z,11.44
2016-09-28T00:30:55.630Z,11.4
2016-09-28T00:31:55.651Z,11.46
2016-09-28T00:32:55.673Z,11.33
2016-09-28T00:33:55.692Z,11.29
2016-09-28T00:34:55.718Z,11.36
2016-09-28T00:35:55.739Z,11.35
2016-09-28T00:36:55.762Z,11.32
2016-09-28T00:37:55.781Z,11.33
2016-09-28T00:38:55.807Z,11.35
2016-09-28T00:39:55.876Z,11.39
2016-09-28T00:40:55.859Z,11.44
2016-09-28T00:42:10.802Z,11.4
2016-09-28T00:42:55.893Z,11.33
2016-09-28T00:43:55.916Z,11.33
2016-09-28T00:46:10.890Z,11.35
2016-09-28T00:46:55.990Z,11.37
2016-09-28T00:47:56.006Z,11.43
2016-09-28T00:48:56.036Z,11.36
2016-09-28T00:49:56.059Z,11.24
2016-09-28T00:50:56.076Z,11.32
2016-09-28T00:51:56.103Z,11.28
2016-09-28T00:52:56.129Z,11.4
2016-09-28T00:53:56.143Z,11.32
2016-09-28T00:54:56.226Z,11.29
2016-09-28T00:55:56.188Z,11.24
2016-09-28T00:56:56.213Z,11.35
2016-09-28T00:57:56.241Z,11.4
2016-09-28T00:58:56.261Z,11.25
2016-09-28T00:59:56.283Z,11.28
2016-09-28T01:00:56.311Z,11.37
2016-09-28T01:02:11.250Z,11.44
2016-09-28T01:02:56.353Z,11.44
2016-09-28T01:03:56.374Z,11.33
2016-09-28T01:04:56.393Z,11.29
2016-09-28T01:05:56.418Z,11.22
2016-09-28T01:06:56.447Z,11.29
2016-09-28T01:07:56.469Z,11.24
2016-09-28T01:08:56.488Z,11.22
2016-09-28T01:09:56.513Z,11.28
2016-09-28T01:10:56.529Z,11.25
2016-09-28T01:11:56.547Z,11.27
2016-09-28T01:12:56.592Z,11.27
2016-09-28T01:13:56.596Z,11.29
2016-09-28T01:15:11.545Z,11.27
2016-09-28T01:15:56.646Z,11.25
2016-09-28T01:16:56.663Z,11.25
2016-09-28T01:18:11.711Z,11.24
2016-09-28T01:19:11.634Z,11.27
2016-09-28T01:19:56.731Z,11.32
2016-09-28T01:20:56.766Z,11.35
2016-09-28T01:21:56.781Z,11.29
2016-09-28T01:22:56.801Z,11.37
2016-09-28T01:23:56.830Z,11.36
2016-09-28T01:24:56.849Z,11.37
2016-09-28T01:25:56.871Z,11.4
2016-09-28T01:26:56.897Z,11.32
2016-09-28T01:27:56.918Z,11.32
2016-09-28T01:28:56.943Z,11.36
2016-09-28T01:29:56.956Z,11.22
2016-09-28T01:30:56.980Z,11.21
2016-09-28T01:31:57.012Z,11.27
2016-09-28T01:32:57.033Z,11.28
2016-09-28T01:34:11.975Z,11.24
2016-09-28T01:34:57.076Z,11.25
2016-09-28T01:35:57.092Z,11.28
2016-09-28T01:36:57.119Z,11.24
2016-09-28T01:37:57.138Z,11.14
2016-09-28T01:39:12.338Z,11.18
2016-09-28T01:39:57.182Z,11.11
2016-09-28T01:40:57.205Z,11.19
2016-09-28T01:41:57.239Z,11.24
2016-09-28T01:42:57.272Z,11.19
2016-09-28T01:43:57.274Z,11.07
2016-09-28T01:44:57.302Z,11.15
2016-09-28T01:45:57.322Z,11.14
2016-09-28T01:46:57.348Z,11.09
2016-09-28T01:47:57.368Z,11.15
2016-09-28T01:49:12.319Z,11.1
2016-09-28T01:49:57.414Z,11.15
2016-09-28T01:50:57.444Z,11.18
2016-09-28T01:51:57.457Z,11.21
2016-09-28T01:52:57.549Z,11.07
2016-09-28T01:53:57.511Z,11.14
2016-09-28T01:54:57.526Z,11.07
2016-09-28T01:55:57.550Z,11.06
2016-09-28T01:56:57.569Z,11.04
2016-09-28T01:57:57.594Z,11.09
2016-09-28T01:58:57.616Z,10.99
2016-09-28T01:59:57.691Z,11.02
2016-09-28T02:01:57.676Z,11.06
2016-09-28T02:02:57.712Z,11.03
2016-09-28T02:03:57.730Z,11.02
2016-09-28T02:04:57.754Z,11.04
2016-09-28T02:06:12.696Z,11.02
2016-09-28T02:06:57.800Z,11.07
2016-09-28T02:07:57.869Z,11.03
2016-09-28T02:08:57.846Z,10.99
2016-09-28T02:09:57.858Z,11.02
2016-09-28T02:10:57.890Z,10.92
2016-09-28T02:11:57.921Z,10.92
2016-09-28T02:12:57.925Z,10.82
2016-09-28T02:13:57.955Z,10.96
2016-09-28T02:14:57.983Z,10.84
2016-09-28T02:15:57.997Z,10.86
2016-09-28T02:16:58.019Z,10.88
2016-09-28T02:18:13.015Z,10.89
2016-09-28T02:18:58.066Z,11.02
2016-09-28T02:21:13.032Z,10.97
2016-09-28T02:21:58.131Z,11.03
2016-09-28T02:22:58.149Z,10.91
2016-09-28T02:23:58.178Z,10.88
2016-09-28T02:24:58.201Z,10.89
2016-09-28T02:25:58.225Z,10.82
2016-09-28T02:26:58.243Z,10.88
2016-09-28T02:28:58.290Z,10.99
2016-09-28T02:29:58.324Z,10.91
2016-09-28T02:30:58.338Z,10.89
2016-09-28T02:31:58.363Z,10.89
2016-09-28T02:32:58.379Z,10.96
2016-09-28T02:33:58.403Z,10.88
2016-09-28T02:34:58.424Z,10.89
2016-09-28T02:35:58.441Z,10.85
2016-09-28T02:37:13.391Z,10.84
2016-09-28T02:37:58.490Z,10.86
2016-09-28T02:38:58.517Z,10.89
2016-09-28T02:39:58.534Z,10.85
2016-09-28T02:40:58.554Z,10.82
2016-09-28T02:41:58.593Z,10.71
2016-09-28T02:42:58.602Z,10.76
2016-09-28T02:43:58.624Z,10.74
2016-09-28T02:44:58.647Z,10.73
2016-09-28T02:45:58.669Z,10.68
2016-09-28T02:46:58.842Z,10.81
2016-09-28T02:49:13.661Z,10.76
2016-09-28T02:49:58.758Z,10.71
2016-09-28T02:50:58.783Z,10.66
2016-09-28T02:51:58.858Z,10.68
2016-09-28T02:53:13.750Z,10.64
2016-09-28T02:53:58.848Z,10.74
2016-09-28T02:55:58.895Z,10.68
2016-09-28T02:56:58.920Z,10.66
2016-09-28T02:57:58.941Z,10.74
2016-09-28T02:58:58.963Z,10.73
2016-09-28T02:59:58.985Z,10.79
2016-09-28T03:00:59.002Z,10.73
2016-09-28T03:01:59.043Z,10.82
2016-09-28T03:03:59.074Z,10.71
2016-09-28T03:04:59.092Z,10.88
2016-09-28T03:07:14.061Z,10.91
2016-09-28T03:07:59.164Z,10.84
2016-09-28T03:09:14.109Z,10.85
2016-09-28T03:09:59.204Z,10.88
2016-09-28T03:10:59.229Z,10.94
2016-09-28T03:11:59.248Z,10.7
2016-09-28T03:12:59.271Z,10.85
2016-09-28T03:13:59.292Z,10.86
2016-09-28T03:14:59.316Z,10.91
2016-09-28T03:15:59.340Z,10.85
2016-09-28T03:16:59.666Z,10.76
2016-09-28T03:17:59.390Z,10.7
2016-09-28T03:18:59.414Z,10.76
2016-09-28T03:19:59.435Z,10.7
2016-09-28T03:21:14.377Z,10.7
2016-09-28T03:22:59.498Z,10.82
2016-09-28T03:24:14.694Z,10.88
2016-09-28T03:24:59.553Z,10.97
2016-09-28T03:25:59.566Z,10.91
2016-09-28T03:26:59.591Z,11.06
2016-09-28T03:27:59.615Z,11.02
2016-09-28T03:28:59.635Z,10.94
2016-09-28T03:29:59.656Z,11.04
2016-09-28T03:30:59.675Z,11.07
2016-09-28T03:31:59.705Z,11.07
2016-09-28T03:32:59.719Z,11.04
2016-09-28T03:33:59.740Z,11.06
2016-09-28T03:34:59.770Z,11.09
2016-09-28T03:35:59.790Z,11.02
2016-09-28T03:36:59.811Z,11.06
2016-09-28T03:38:00.132Z,11.03
2016-09-28T03:38:59.858Z,11.06
2016-09-28T03:39:59.888Z,11
2016-09-28T03:40:59.899Z,11.02
2016-09-28T03:41:59.922Z,11.07
2016-09-28T03:42:59.943Z,11.02
2016-09-28T03:44:00.018Z,11.04
2016-09-28T03:44:59.989Z,11.07
2016-09-28T03:46:00.263Z,11.1
2016-09-28T03:47:00.033Z,11.14
2016-09-28T03:48:00.056Z,11.11
2016-09-28T03:49:00.077Z,11.11
2016-09-28T03:50:00.096Z,11.04
2016-09-28T03:51:00.125Z,11.03
2016-09-28T03:52:00.136Z,11.17
2016-09-28T03:53:00.165Z,11.09
2016-09-28T03:54:15.110Z,11.09
2016-09-28T03:55:00.217Z,11.1
2016-09-28T03:56:15.162Z,11.04
2016-09-28T03:57:00.258Z,11.06
2016-09-28T03:58:00.375Z,11.11
2016-09-28T03:59:00.301Z,11.14
2016-09-28T04:00:00.319Z,11.25
2016-09-28T04:01:00.344Z,11.24
2016-09-28T04:02:00.367Z,11.24
2016-09-28T04:03:00.388Z,11.24
2016-09-28T04:04:00.430Z,11.24
2016-09-28T04:05:00.432Z,11.25
2016-09-28T04:06:00.451Z,11.28
2016-09-28T04:07:00.477Z,11.4
2016-09-28T04:08:00.494Z,11.28
2016-09-28T04:09:00.520Z,11.36
2016-09-28T04:10:00.543Z,11.36
2016-09-28T04:11:00.566Z,11.24
2016-09-28T04:12:15.507Z,11.24
2016-09-28T04:13:00.609Z,11.33
2016-09-28T04:14:00.633Z,11.27
2016-09-28T04:15:00.654Z,11.43
2016-09-28T04:16:00.673Z,11.37
2016-09-28T04:17:00.699Z,11.43
2016-09-28T04:18:00.723Z,11.44
2016-09-28T04:19:00.749Z,11.42
2016-09-28T04:20:00.769Z,11.35
2016-09-28T04:22:00.817Z,11.43
2016-09-28T04:23:00.833Z,11.49
2016-09-28T04:25:15.801Z,11.46
2016-09-28T04:26:00.899Z,11.42
2016-09-28T04:27:00.925Z,11.46
2016-09-28T04:28:15.865Z,11.46
2016-09-28T04:29:01.025Z,11.4
2016-09-28T04:30:00.989Z,11.43
2016-09-28T04:31:01.061Z,11.43
2016-09-28T04:32:01.038Z,11.4
2016-09-28T04:33:01.058Z,11.47
2016-09-28T04:34:01.082Z,11.35
2016-09-28T04:35:01.099Z,11.4
2016-09-28T04:36:01.129Z,11.47
2016-09-28T04:38:01.183Z,11.46
2016-09-28T04:39:01.192Z,11.35
2016-09-28T04:40:01.209Z,11.37
2016-09-28T04:41:01.232Z,11.43
2016-09-28T04:42:01.267Z,11.39
2016-09-28T04:43:01.293Z,11.47
2016-09-28T04:44:16.530Z,11.43
2016-09-28T04:45:01.378Z,11.55
2016-09-28T04:46:01.651Z,11.44
2016-09-28T04:47:01.371Z,11.52
2016-09-28T04:48:01.393Z,11.54
2016-09-28T04:49:01.748Z,11.58
2016-09-28T04:50:01.459Z,11.43
2016-09-28T04:51:01.465Z,11.61
2016-09-28T04:52:01.784Z,11.6
2016-09-28T04:53:01.503Z,11.54
2016-09-28T04:54:01.525Z,11.58
2016-09-28T04:55:01.553Z,11.51
2016-09-28T04:56:01.574Z,11.61
2016-09-28T04:57:01.595Z,11.69
2016-09-28T04:58:01.679Z,11.67
2016-09-28T04:59:16.562Z,11.6
2016-09-28T05:00:01.663Z,11.58
2016-09-28T05:02:01.706Z,11.62
2016-09-28T05:03:01.728Z,11.57
2016-09-28T05:04:01.747Z,11.61
2016-09-28T05:05:01.773Z,11.61
2016-09-28T05:06:01.796Z,11.67
2016-09-28T05:07:01.817Z,11.75
2016-09-28T05:08:01.842Z,11.6
2016-09-28T05:09:01.913Z,11.72
2016-09-28T05:10:01.884Z,11.86
2016-09-28T05:11:16.834Z,11.88
2016-09-28T05:14:16.897Z,11.85
2016-09-28T05:15:02.003Z,11.94
2016-09-28T05:16:16.939Z,11.83
2016-09-28T05:17:02.356Z,11.95
2016-09-28T05:18:02.066Z,11.95
2016-09-28T05:19:02.086Z,11.91
2016-09-28T05:20:02.104Z,12.01
2016-09-28T05:21:02.149Z,12.09
2016-09-28T05:22:02.155Z,12.16
2016-09-28T05:23:02.178Z,12.16
2016-09-28T05:24:02.447Z,12.16
2016-09-28T05:25:02.222Z,12.23
2016-09-28T05:26:02.251Z,12.29
2016-09-28T05:27:02.278Z,12.24
2016-09-28T05:28:02.593Z,12.29
2016-09-28T05:29:02.316Z,12.35
2016-09-28T05:30:02.338Z,12.32
2016-09-28T05:31:17.281Z,12.32
2016-09-28T05:32:02.380Z,12.45
2016-09-28T05:33:02.397Z,12.47
2016-09-28T05:34:02.424Z,12.46
2016-09-28T05:35:02.451Z,12.46
2016-09-28T05:36:02.477Z,12.49
2016-09-28T05:37:02.497Z,12.45
2016-09-28T05:38:02.515Z,12.57
2016-09-28T05:39:02.533Z,12.52
2016-09-28T05:40:02.554Z,12.7
2016-09-28T05:41:02.588Z,12.68
2016-09-28T05:42:17.541Z,12.79
2016-09-28T05:45:02.675Z,12.86
2016-09-28T05:46:02.697Z,12.95
2016-09-28T05:47:17.645Z,13.04
2016-09-28T05:48:02.740Z,13.05
2016-09-28T05:49:02.762Z,13.12
2016-09-28T05:50:02.790Z,13.15
2016-09-28T05:51:02.809Z,13.2
2016-09-28T05:52:02.846Z,13.33
2016-09-28T05:53:02.858Z,13.32
2016-09-28T05:54:02.880Z,13.32
2016-09-28T05:55:02.906Z,13.28
2016-09-28T05:56:02.922Z,13.36
2016-09-28T05:57:02.949Z,13.41
2016-09-28T05:58:02.974Z,13.44
2016-09-28T05:59:02.993Z,13.46
2016-09-28T06:00:03.020Z,13.44
2016-09-28T06:01:03.047Z,13.44
2016-09-28T06:02:03.067Z,13.6
2016-09-28T06:03:18.009Z,13.57
2016-09-28T06:04:03.112Z,13.45
2016-09-28T06:05:03.134Z,13.54
2016-09-28T06:06:03.157Z,13.63
2016-09-28T06:07:03.178Z,13.64
2016-09-28T06:08:03.205Z,13.59
2016-09-28T06:10:03.252Z,13.67
2016-09-28T06:11:03.273Z,13.64
2016-09-28T06:12:03.287Z,13.64
2016-09-28T06:13:03.518Z,13.67
2016-09-28T06:14:03.340Z,13.73
2016-09-28T06:15:03.363Z,13.77
2016-09-28T06:16:03.387Z,13.85
2016-09-28T06:17:03.408Z,13.95
2016-09-28T06:18:03.428Z,13.89
2016-09-28T06:19:18.379Z,13.89
2016-09-28T06:20:03.480Z,14
2016-09-28T06:21:03.498Z,13.97
2016-09-28T06:22:03.520Z,14.03
2016-09-28T06:23:03.586Z,14.14
2016-09-28T06:24:03.586Z,14.12
2016-09-28T06:25:03.593Z,14.17
2016-09-28T06:26:03.617Z,14.17
2016-09-28T06:27:18.572Z,14.22
2016-09-28T06:28:03.664Z,14.32
2016-09-28T06:29:03.688Z,14.37
2016-09-28T06:30:03.711Z,14.47
2016-09-28T06:31:18.661Z,14.43
2016-09-28T06:32:03.773Z,14.47
2016-09-28T06:33:03.788Z,14.51
2016-09-28T06:34:18.730Z,14.5
2016-09-28T06:35:03.833Z,14.51
2016-09-28T06:36:03.853Z,14.5
2016-09-28T06:37:03.876Z,14.58
2016-09-28T06:38:03.901Z,14.58
2016-09-28T06:39:03.927Z,14.64
2016-09-28T06:40:03.950Z,14.6
2016-09-28T06:41:03.969Z,14.54
2016-09-28T06:42:03.998Z,14.52
2016-09-28T06:43:04.018Z,14.64
2016-09-28T06:44:04.043Z,14.68
2016-09-28T06:45:04.071Z,14.73
2016-09-28T06:46:04.090Z,14.75
2016-09-28T06:47:04.112Z,14.8
2016-09-28T06:48:04.132Z,14.75
2016-09-28T06:49:04.159Z,14.73
2016-09-28T06:50:04.187Z,14.75
2016-09-28T06:51:19.127Z,14.83
2016-09-28T06:52:04.233Z,14.95
2016-09-28T06:53:04.251Z,14.92
2016-09-28T06:54:04.280Z,14.99
2016-09-28T06:55:04.292Z,15.02
2016-09-28T06:56:04.323Z,15.02
2016-09-28T06:57:04.345Z,15.03
2016-09-28T06:58:04.369Z,15.16
2016-09-28T07:01:04.445Z,15.27
2016-09-28T07:02:04.462Z,15.25
2016-09-28T07:04:04.513Z,15.17
2016-09-28T07:05:04.537Z,15.32
2016-09-28T07:06:19.480Z,15.35
2016-09-28T07:07:04.587Z,15.34
2016-09-28T07:08:04.615Z,15.31
2016-09-28T07:09:04.633Z,15.36
2016-09-28T07:10:04.647Z,15.35
2016-09-28T07:11:04.676Z,15.39
2016-09-28T07:12:04.703Z,15.46
2016-09-28T07:13:04.727Z,15.41
2016-09-28T07:14:04.745Z,15.49
2016-09-28T07:15:04.777Z,15.5
2016-09-28T07:16:04.796Z,15.59
2016-09-28T07:17:04.829Z,15.6
2016-09-28T07:18:04.843Z,15.69
2016-09-28T07:19:04.863Z,15.69
2016-09-28T07:20:04.888Z,15.65
2016-09-28T07:21:04.914Z,15.75
2016-09-28T07:22:19.872Z,15.84
2016-09-28T07:23:04.964Z,15.82
2016-09-28T07:24:04.997Z,15.83
2016-09-28T07:25:05.014Z,15.93
2016-09-28T07:26:05.040Z,15.93
2016-09-28T07:27:05.059Z,16.01
2016-09-28T07:28:05.083Z,15.97
2016-09-28T07:29:05.109Z,16.05
2016-09-28T07:30:05.128Z,16.14
2016-09-28T07:31:05.153Z,16.21
2016-09-28T07:32:05.175Z,16.28
2016-09-28T07:33:05.201Z,16.27
2016-09-28T07:34:20.152Z,16.27
2016-09-28T07:35:05.243Z,16.34
2016-09-28T07:36:05.374Z,16.38
2016-09-28T07:37:05.300Z,16.33
2016-09-28T07:38:20.245Z,16.39
2016-09-28T07:39:20.268Z,16.45
2016-09-28T07:40:05.366Z,16.57
2016-09-28T07:41:05.390Z,16.66
2016-09-28T07:42:05.422Z,16.66
2016-09-28T07:43:05.437Z,16.81
2016-09-28T07:44:05.462Z,16.81
2016-09-28T07:45:05.496Z,16.86
2016-09-28T07:46:05.512Z,16.86
2016-09-28T07:47:05.540Z,16.91
2016-09-28T07:48:05.566Z,17.01
2016-09-28T07:49:05.590Z,16.94
2016-09-28T07:50:20.537Z,17.11
2016-09-28T07:51:20.563Z,17.18
2016-09-28T07:52:05.664Z,17.21
2016-09-28T07:53:05.696Z,17.18
2016-09-28T07:54:20.633Z,17.3
2016-09-28T07:55:05.736Z,17.43
2016-09-28T07:56:05.765Z,17.56
2016-09-28T07:57:05.781Z,17.63
2016-09-28T07:58:05.814Z,17.75
2016-09-28T07:59:05.841Z,17.72
2016-09-28T08:00:05.856Z,17.81
2016-09-28T08:01:06.180Z,17.93
2016-09-28T08:02:05.907Z,18
2016-09-28T08:03:05.937Z,18.12
2016-09-28T08:04:05.956Z,18.14
2016-09-28T08:05:05.988Z,18.18
2016-09-28T08:07:06.035Z,18.36
2016-09-28T08:08:06.057Z,18.39
2016-09-28T08:09:21.005Z,18.47
2016-09-28T08:10:06.109Z,18.45
2016-09-28T08:11:06.133Z,18.54
2016-09-28T08:12:06.158Z,18.58
2016-09-28T08:13:06.181Z,18.57
2016-09-28T08:14:06.219Z,18.78
2016-09-28T08:15:06.237Z,18.84
2016-09-28T08:16:06.260Z,19
2016-09-28T08:17:06.285Z,19.11
2016-09-28T08:18:06.308Z,19.14
2016-09-28T08:19:06.333Z,19.22
2016-09-28T08:20:06.362Z,19.29
2016-09-28T08:21:21.311Z,19.4
2016-09-28T08:22:06.413Z,19.4
2016-09-28T08:23:06.454Z,19.46
2016-09-28T08:24:06.465Z,19.56
2016-09-28T08:25:06.490Z,19.61
2016-09-28T08:26:21.434Z,19.56
2016-09-28T08:27:06.537Z,19.58
2016-09-28T08:28:06.563Z,19.5
2016-09-28T08:29:06.590Z,19.56
2016-09-28T08:30:06.613Z,19.61
2016-09-28T08:31:06.644Z,19.62
2016-09-28T08:32:06.668Z,19.69
2016-09-28T08:33:06.697Z,19.66
2016-09-28T08:35:07.045Z,19.68
2016-09-28T08:36:07.022Z,19.74
2016-09-28T08:37:06.794Z,19.69
2016-09-28T08:38:06.818Z,19.66
2016-09-28T08:39:06.851Z,19.68
2016-09-28T08:40:06.874Z,19.62
2016-09-28T08:41:21.816Z,19.54
2016-09-28T08:42:06.926Z,19.54
2016-09-28T08:43:06.949Z,19.54
2016-09-28T08:44:06.973Z,19.58
2016-09-28T08:45:07.000Z,19.62
2016-09-28T08:46:07.024Z,19.55
2016-09-28T08:47:07.049Z,19.68
2016-09-28T08:48:07.077Z,19.59
2016-09-28T08:49:07.153Z,19.76
2016-09-28T08:50:07.149Z,19.77
2016-09-28T08:51:07.153Z,19.74
2016-09-28T08:52:07.173Z,19.81
2016-09-28T08:53:22.131Z,19.87
2016-09-28T08:54:07.231Z,19.96
2016-09-28T08:55:07.256Z,19.99
2016-09-28T08:56:07.282Z,20.01
2016-09-28T08:57:22.227Z,19.95
2016-09-28T08:58:07.337Z,19.95
2016-09-28T08:59:07.355Z,20.06
2016-09-28T09:00:07.386Z,20.08
2016-09-28T09:01:07.414Z,20.23
2016-09-28T09:02:07.438Z,20.24
2016-09-28T09:03:07.464Z,20.24
2016-09-28T09:04:07.486Z,20.33
2016-09-28T09:07:07.562Z,20.59
2016-09-28T09:08:07.589Z,20.55
2016-09-28T09:09:07.616Z,20.59
2016-09-28T09:10:07.651Z,20.64
2016-09-28T09:11:07.678Z,20.61
2016-09-28T09:12:07.695Z,20.58
2016-09-28T09:13:22.640Z,20.64
2016-09-28T09:14:07.747Z,20.5
2016-09-28T09:15:07.775Z,20.64
2016-09-28T09:16:07.794Z,20.72
2016-09-28T09:17:07.824Z,20.66
2016-09-28T09:18:07.846Z,20.74
2016-09-28T09:19:07.876Z,20.72
2016-09-28T09:20:07.896Z,20.85
2016-09-28T09:22:07.952Z,20.84
2016-09-28T09:23:07.982Z,20.97
2016-09-28T09:24:08.008Z,20.92
2016-09-28T09:25:08.031Z,20.97
2016-09-28T09:26:08.057Z,20.95
2016-09-28T09:27:08.075Z,20.95
2016-09-28T09:28:08.110Z,20.89
2016-09-28T09:29:23.058Z,20.84
2016-09-28T09:30:08.166Z,20.79
2016-09-28T09:31:08.189Z,20.74
2016-09-28T09:32:08.211Z,20.66
2016-09-28T09:33:08.255Z,20.64
2016-09-28T09:34:08.265Z,20.69
2016-09-28T09:35:08.287Z,20.69
2016-09-28T09:36:08.311Z,20.72
2016-09-28T09:39:08.397Z,20.88
2016-09-28T09:40:08.418Z,20.91
2016-09-28T09:41:08.441Z,20.87
2016-09-28T09:42:23.396Z,20.97
2016-09-28T09:43:08.501Z,20.97
2016-09-28T09:44:23.448Z,20.88
2016-09-28T09:45:23.473Z,20.84
2016-09-28T09:46:08.577Z,20.82
2016-09-28T09:47:08.608Z,20.73
2016-09-28T09:48:08.630Z,20.77
2016-09-28T09:49:08.656Z,20.69
2016-09-28T09:50:08.686Z,20.72
2016-09-28T09:51:08.710Z,20.62
2016-09-28T09:52:08.735Z,20.52
2016-09-28T09:53:08.758Z,20.57
2016-09-28T09:54:08.790Z,20.54
2016-09-28T09:55:09.114Z,20.52
2016-09-28T09:57:08.863Z,20.55
2016-09-28T09:58:08.892Z,20.54
2016-09-28T09:59:08.912Z,20.5
2016-09-28T10:00:08.944Z,20.59
2016-09-28T10:01:08.966Z,20.59
2016-09-28T10:02:08.993Z,20.61
2016-09-28T10:03:09.020Z,20.61
2016-09-28T10:04:09.037Z,20.61
2016-09-28T10:05:09.070Z,20.66
2016-09-28T10:06:09.096Z,20.64
2016-09-28T10:07:09.118Z,20.59
2016-09-28T10:08:09.149Z,20.58
2016-09-28T10:09:24.104Z,20.59
2016-09-28T10:10:09.206Z,20.69
2016-09-28T10:12:09.258Z,20.7
2016-09-28T10:13:09.271Z,20.61
2016-09-28T10:14:09.320Z,20.61
2016-09-28T10:15:09.327Z,20.67
2016-09-28T10:16:24.582Z,20.54
2016-09-28T10:17:09.380Z,20.58
2016-09-28T10:18:09.415Z,20.61
2016-09-28T10:19:09.435Z,20.55
2016-09-28T10:20:09.460Z,20.52
2016-09-28T10:21:09.486Z,20.61
2016-09-28T10:22:09.510Z,20.51
2016-09-28T10:23:09.545Z,20.48
2016-09-28T10:24:09.560Z,20.64
2016-09-28T10:25:09.591Z,20.52
2016-09-28T10:26:09.614Z,20.62
2016-09-28T10:27:09.642Z,20.64
2016-09-28T10:28:09.666Z,20.72
2016-09-28T10:29:09.697Z,20.69
2016-09-28T10:31:09.746Z,20.88
2016-09-28T10:32:24.696Z,20.94
2016-09-28T10:33:09.793Z,20.97
2016-09-28T10:34:09.831Z,20.92
2016-09-28T10:35:09.870Z,21.01
2016-09-28T10:36:09.868Z,21.19
2016-09-28T10:37:09.901Z,21.19
2016-09-28T10:38:09.927Z,21.25
2016-09-28T10:39:09.950Z,21.22
2016-09-28T10:40:09.975Z,21.07
2016-09-28T10:41:09.999Z,21.13
2016-09-28T10:42:10.029Z,20.92
2016-09-28T10:43:10.061Z,21.04
2016-09-28T10:44:10.083Z,21.06
2016-09-28T10:45:10.109Z,21.03
2016-09-28T10:46:10.136Z,21.12
2016-09-28T10:47:10.160Z,21.1
2016-09-28T10:48:25.110Z,21.1
2016-09-28T10:49:10.215Z,21.19
2016-09-28T10:50:10.243Z,21.12
2016-09-28T10:51:10.268Z,21.21
2016-09-28T10:52:10.286Z,21.21
2016-09-28T10:53:10.317Z,21.21
2016-09-28T10:54:10.344Z,21.21
2016-09-28T10:55:10.366Z,21.17
2016-09-28T10:56:10.393Z,21.32
2016-09-28T10:57:10.418Z,21.35
2016-09-28T10:58:10.452Z,21.37
2016-09-28T10:59:10.469Z,21.32
2016-09-28T11:00:10.498Z,21.37
2016-09-28T11:01:10.529Z,21.32
2016-09-28T11:02:10.552Z,21.42
2016-09-28T11:03:10.580Z,21.34
2016-09-28T11:04:25.526Z,21.32
2016-09-28T11:05:10.636Z,21.32
2016-09-28T11:06:10.649Z,21.32
2016-09-28T11:07:10.677Z,21.28
2016-09-28T11:08:10.709Z,21.38
2016-09-28T11:09:10.737Z,21.35
2016-09-28T11:10:10.763Z,21.37
2016-09-28T11:11:10.786Z,21.37
2016-09-28T11:12:10.812Z,21.4
2016-09-28T11:13:10.839Z,21.25
2016-09-28T11:14:10.870Z,21.38
2016-09-28T11:15:10.895Z,21.38
2016-09-28T11:16:10.917Z,21.35
2016-09-28T11:17:10.943Z,21.54
2016-09-28T11:18:10.970Z,21.58
2016-09-28T11:19:25.921Z,21.67
2016-09-28T11:20:11.030Z,21.68
2016-09-28T11:21:11.045Z,21.9
2016-09-28T11:22:11.071Z,22.05
2016-09-28T11:23:11.104Z,22.07
2016-09-28T11:24:11.130Z,22.22
2016-09-28T11:25:11.155Z,22.33
2016-09-28T11:26:11.175Z,22.4
2016-09-28T11:28:11.233Z,22.47
2016-09-28T11:29:11.272Z,22.51
2016-09-28T11:30:11.286Z,22.65
2016-09-28T11:31:26.244Z,22.6
2016-09-28T11:32:26.264Z,22.52
2016-09-28T11:33:11.367Z,22.73
2016-09-28T11:35:11.419Z,22.94
2016-09-28T11:36:26.370Z,23
2016-09-28T11:37:11.475Z,23.01
2016-09-28T11:38:11.498Z,23.02
2016-09-28T11:39:11.531Z,23.13
2016-09-28T11:40:11.553Z,23.25
2016-09-28T11:41:11.584Z,23.28
2016-09-28T11:42:11.612Z,23.32
2016-09-28T11:43:11.632Z,23.46
2016-09-28T11:44:11.660Z,23.38
2016-09-28T11:45:11.701Z,23.31
2016-09-28T11:46:11.714Z,23.46
2016-09-28T11:47:11.743Z,23.38
2016-09-28T11:48:11.778Z,23.54
2016-09-28T11:49:11.801Z,23.5
2016-09-28T11:50:26.751Z,23.39
2016-09-28T11:51:26.774Z,23.43
2016-09-28T11:52:11.983Z,23.63
2016-09-28T11:53:11.915Z,23.53
2016-09-28T11:54:11.945Z,23.5
2016-09-28T11:55:12.264Z,23.54
2016-09-28T11:56:12.002Z,23.69
2016-09-28T11:57:12.019Z,23.66
2016-09-28T11:58:12.045Z,23.57
2016-09-28T11:59:12.076Z,23.47
2016-09-28T12:00:12.104Z,23.33
2016-09-28T12:02:12.156Z,23.38
2016-09-28T12:03:12.180Z,23.19
2016-09-28T12:04:12.207Z,23.13
2016-09-28T12:05:12.239Z,23.2
2016-09-28T12:06:12.570Z,23.38
2016-09-28T12:07:27.221Z,23.35
2016-09-28T12:08:12.320Z,23.23
2016-09-28T12:09:12.346Z,23.28
2016-09-28T12:11:12.404Z,23.16
2016-09-28T12:12:12.430Z,23.15
2016-09-28T12:13:12.457Z,23.19
2016-09-28T12:14:12.489Z,23.09
2016-09-28T12:15:12.515Z,23
2016-09-28T12:16:12.536Z,23.05
2016-09-28T12:17:12.565Z,22.98
2016-09-28T12:18:12.597Z,22.95
2016-09-28T12:19:27.547Z,22.91
2016-09-28T12:20:27.574Z,22.91
2016-09-28T12:21:12.676Z,22.92
2016-09-28T12:23:27.660Z,22.86
2016-09-28T12:24:12.764Z,22.77
2016-09-28T12:25:12.785Z,22.76
2016-09-28T12:26:12.818Z,22.72
2016-09-28T12:27:12.842Z,22.61
2016-09-28T12:28:12.867Z,22.52
2016-09-28T12:29:12.901Z,22.65
2016-09-28T12:30:12.920Z,22.68
2016-09-28T12:32:12.973Z,22.86
2016-09-28T12:33:12.998Z,22.9
2016-09-28T12:34:13.026Z,22.9
2016-09-28T12:35:13.108Z,23
2016-09-28T12:36:28.011Z,23.02
2016-09-28T12:37:13.111Z,23.07
2016-09-28T12:38:13.135Z,23.22
2016-09-28T12:39:28.094Z,23.2
2016-09-28T12:40:13.200Z,23.22
2016-09-28T12:41:13.227Z,23.1
2016-09-28T12:42:13.259Z,23.02
2016-09-28T12:43:13.276Z,22.91
2016-09-28T12:44:13.304Z,22.97
2016-09-28T12:45:13.333Z,22.98
2016-09-28T12:46:13.359Z,23
2016-09-28T12:47:13.385Z,22.97
2016-09-28T12:48:13.413Z,22.8
2016-09-28T12:49:13.439Z,22.75
2016-09-28T12:50:13.479Z,22.72
2016-09-28T12:51:28.421Z,22.55
2016-09-28T12:52:13.520Z,22.6
2016-09-28T12:53:13.571Z,22.65
2016-09-28T12:54:28.499Z,22.57
2016-09-28T12:55:13.608Z,22.62
2016-09-28T12:56:28.573Z,22.7
2016-09-28T12:57:13.657Z,22.6
2016-09-28T12:58:13.687Z,22.47
2016-09-28T12:59:13.716Z,22.52
2016-09-28T13:00:13.745Z,22.45
2016-09-28T13:01:14.064Z,22.49
2016-09-28T13:02:13.811Z,22.47
2016-09-28T13:03:13.814Z,22.55
2016-09-28T13:04:13.851Z,22.57
2016-09-28T13:05:13.880Z,22.67
2016-09-28T13:06:28.829Z,22.77
2016-09-28T13:07:13.931Z,22.9
2016-09-28T13:08:13.959Z,22.86
2016-09-28T13:09:13.984Z,22.91
2016-09-28T13:10:14.017Z,22.77
2016-09-28T13:11:14.037Z,22.68
2016-09-28T13:12:14.070Z,22.68
2016-09-28T13:13:14.100Z,22.73
2016-09-28T13:14:14.121Z,22.7
2016-09-28T13:15:14.147Z,22.76
2016-09-28T13:16:14.187Z,22.77
2016-09-28T13:17:14.200Z,22.6
2016-09-28T13:19:14.263Z,22.58
2016-09-28T13:20:14.279Z,22.51
2016-09-28T13:21:14.313Z,22.4
2016-09-28T13:22:14.336Z,22.42
2016-09-28T13:23:29.290Z,22.51
2016-09-28T13:24:14.394Z,22.47
2016-09-28T13:25:14.413Z,22.49
2016-09-28T13:26:29.382Z,22.64
2016-09-28T13:27:14.473Z,22.6
2016-09-28T13:28:14.505Z,22.61
2016-09-28T13:29:14.527Z,22.65
2016-09-28T13:30:14.559Z,22.57
2016-09-28T13:31:14.585Z,22.45
2016-09-28T13:32:14.610Z,22.57
2016-09-28T13:33:14.640Z,22.57
2016-09-28T13:34:14.664Z,22.54